Time;durP1;ratioP1;P1;durP2;ratioP2;P2;SDS_P1;SDS_P2;PMS_P1;PMS_P2;Temp;Humidity;BMP_temperature;BMP_pressure;BME280_temperature;BME280_humidity;BME280_pressure;Samples;Min_cycle;Max_cycle;Signal;HPM_P1;HPM_P2
2022/06/30 00:02:17;;;;;;;10.80;9.80;;;;;;100412.10;;;;104676;1309;33548;-42
2022/06/30 00:04:49;;;;;;;10.90;9.90;;;;;;100406.48;;;;104560;1313;35759;-42
2022/06/30 00:07:21;;;;;;;10.70;9.70;;;;;;100406.88;;;;104634;1312;33774;-43
2022/06/30 00:09:53;;;;;;;10.40;9.40;;;;;;100406.50;;;;104666;1313;35776;-41
2022/06/30 00:12:25;;;;;;;11.40;10.30;;;;;;100399.70;;;;104648;1313;35443;-42
2022/06/30 00:14:58;;;;;;;11.30;10.30;;;;;;100399.05;;;;104413;1310;326083;-41
2022/06/30 00:17:30;;;;;;;10.90;9.90;;;;;;100396.05;;;;104646;1310;35066;-42
2022/06/30 00:20:03;;;;;;;11.20;9.70;;;;;;100397.63;;;;104659;1313;33635;-42
2022/06/30 00:22:35;;;;;;;10.90;9.80;;;;;;100393.15;;;;104653;1313;33407;-43
2022/06/30 00:25:09;;;;;;;;;;;;;;100391.32;;;;104660;1314;35279;-41
2022/06/30 00:27:42;;;;;;;11.20;10.20;;;;;;100393.85;;;;104702;1305;33588;-42
2022/06/30 00:30:16;;;;;;;10.10;9.10;;;;;;100391.10;;;;104562;1312;35732;-42
2022/06/30 00:32:48;;;;;;;10.60;9.60;;;;;;100389.40;;;;104679;1308;35236;-42
2022/06/30 00:35:21;;;;;;;11.20;10.10;;;;;;100383.40;;;;104663;1304;35662;-42
2022/06/30 00:37:53;;;;;;;11.00;10.00;;;;;;100379.25;;;;104671;1310;34048;-42
2022/06/30 00:40:26;;;;;;;10.40;9.40;;;;;;100378.67;;;;104685;1310;33818;-42
2022/06/30 00:42:59;;;;;;;10.70;9.70;;;;;;100377.53;;;;104684;1310;35426;-42
2022/06/30 00:45:31;;;;;;;10.20;9.20;;;;;;100376.09;;;;104698;1314;35693;-42
2022/06/30 00:48:04;;;;;;;10.80;9.80;;;;;;100377.74;;;;104678;1313;35383;-42
2022/06/30 00:50:35;;;;;;;;;;;;;;100376.09;;;;104690;1309;35873;-42
2022/06/30 00:53:09;;;;;;;11.20;10.20;;;;;;100370.30;;;;104680;1310;34498;-42
2022/06/30 00:55:42;;;;;;;11.20;10.10;;;;;;100366.20;;;;104641;1312;35188;-42
2022/06/30 00:58:17;;;;;;;11.30;10.20;;;;;;100362.95;;;;104647;1312;35868;-41
2022/06/30 01:00:51;;;;;;;11.10;10.10;;;;;;100359.28;;;;104658;1304;35237;-42
2022/06/30 01:03:24;;;;;;;10.80;9.80;;;;;;100357.73;;;;104644;1309;34773;-42
2022/06/30 01:05:56;;;;;;;11.20;10.20;;;;;;100358.80;;;;104625;1314;35219;-42
2022/06/30 01:08:28;;;;;;;11.00;9.90;;;;;;100360.89;;;;104668;1309;35385;-41
2022/06/30 01:13:51;;;;;;;11.40;10.40;;;;;;100363.29;;;;104666;1308;34370;-41
2022/06/30 01:16:24;;;;;;;11.80;10.70;;;;;;100364.23;;;;104670;1311;35022;-42
2022/06/30 01:18:59;;;;;;;11.00;10.00;;;;;;100360.20;;;;104667;1312;35590;-41
2022/06/30 01:21:32;;;;;;;11.50;10.40;;;;;;100356.47;;;;104639;1312;35264;-42
2022/06/30 01:24:05;;;;;;;11.50;10.30;;;;;;100355.15;;;;104663;1308;35483;-42
2022/06/30 01:26:37;;;;;;;11.20;10.20;;;;;;100357.08;;;;104689;1304;35114;-41
2022/06/30 01:29:10;;;;;;;10.60;9.60;;;;;;100359.48;;;;104657;1312;33615;-41
2022/06/30 01:31:43;;;;;;;10.80;9.90;;;;;;100364.18;;;;104549;1308;35209;-42
2022/06/30 01:34:15;;;;;;;10.90;9.90;;;;;;100363.77;;;;104662;1310;34593;-41
2022/06/30 01:36:47;;;;;;;10.30;9.40;;;;;;100361.27;;;;104684;1308;33950;-43
2022/06/30 01:39:19;;;;;;;10.50;9.50;;;;;;100355.96;;;;104666;1313;35344;-42
2022/06/30 01:41:52;;;;;;;10.70;9.70;;;;;;100348.52;;;;104646;1310;34982;-42
2022/06/30 01:44:24;;;;;;;11.60;10.40;;;;;;100343.23;;;;104550;1310;35093;-42
2022/06/30 01:46:57;;;;;;;11.60;10.60;;;;;;100344.48;;;;104656;1312;34588;-42
2022/06/30 01:49:29;;;;;;;11.50;10.50;;;;;;100348.86;;;;104622;1313;36048;-41
2022/06/30 01:52:02;;;;;;;10.80;9.80;;;;;;100351.80;;;;104653;1313;35278;-41
2022/06/30 01:54:34;;;;;;;10.70;9.60;;;;;;100347.88;;;;104574;1313;35214;-43
2022/06/30 01:57:08;;;;;;;10.60;9.60;;;;;;100347.86;;;;104696;1312;35652;-42
2022/06/30 01:59:40;;;;;;;11.00;10.00;;;;;;100347.76;;;;104567;1309;33579;-42
2022/06/30 02:02:13;;;;;;;11.20;10.10;;;;;;100343.16;;;;104654;1314;35239;-41
2022/06/30 02:04:48;;;;;;;10.70;9.70;;;;;;100339.45;;;;104561;1311;35402;-43
2022/06/30 02:07:21;;;;;;;11.20;10.20;;;;;;100345.64;;;;104668;1308;35102;-43
2022/06/30 02:09:56;;;;;;;10.80;9.80;;;;;;100345.20;;;;104701;1312;35116;-42
2022/06/30 02:12:47;;;;;;;11.90;10.80;;;;;;100337.45;;;;104659;1308;35262;-41
2022/06/30 02:15:23;;;;;;;12.20;11.10;;;;;;100337.41;;;;104658;1313;35261;-43
2022/06/30 02:17:56;;;;;;;12.00;10.80;;;;;;100340.25;;;;104679;1305;35273;-43
2022/06/30 02:20:28;;;;;;;11.80;10.70;;;;;;100341.48;;;;104664;1309;35044;-42
2022/06/30 02:23:04;;;;;;;12.30;11.20;;;;;;100339.36;;;;104551;1314;35122;-42
2022/06/30 02:25:37;;;;;;;11.90;10.80;;;;;;100332.77;;;;104658;1307;33526;-42
2022/06/30 02:28:09;;;;;;;12.00;11.00;;;;;;100330.98;;;;104655;1308;34395;-42
2022/06/30 02:30:42;;;;;;;11.30;10.30;;;;;;100329.88;;;;104649;1312;35562;-42
2022/06/30 02:33:15;;;;;;;11.80;10.70;;;;;;100334.87;;;;104700;1313;33579;-42
2022/06/30 02:35:47;;;;;;;11.80;10.70;;;;;;100334.05;;;;104690;1308;35634;-43
2022/06/30 02:38:19;;;;;;;11.80;10.70;;;;;;100333.49;;;;104649;1312;35130;-42
2022/06/30 02:40:51;;;;;;;12.10;10.60;;;;;;100330.44;;;;104670;1311;32729;-42
2022/06/30 02:43:24;;;;;;;12.00;10.90;;;;;;100331.90;;;;104671;1305;33743;-42
2022/06/30 02:45:56;;;;;;;11.70;10.50;;;;;;100334.14;;;;104666;1310;35286;-42
2022/06/30 02:48:29;;;;;;;11.40;10.30;;;;;;100339.05;;;;104663;1308;34475;-43
2022/06/30 02:51:01;;;;;;;11.20;10.10;;;;;;100334.81;;;;104643;1312;35480;-41
2022/06/30 02:53:33;;;;;;;12.50;11.20;;;;;;100337.20;;;;104634;1308;33584;-42
2022/06/30 02:56:06;;;;;;;11.90;10.80;;;;;;100341.56;;;;104657;1308;35977;-42
2022/06/30 02:58:38;;;;;;;11.80;10.70;;;;;;100347.23;;;;104663;1310;34853;-42
2022/06/30 03:01:13;;;;;;;12.00;10.70;;;;;;100342.81;;;;104656;1312;34534;-42
2022/06/30 03:03:45;;;;;;;11.80;10.70;;;;;;100336.56;;;;104634;1314;33612;-42
2022/06/30 03:06:20;;;;;;;12.00;10.90;;;;;;100338.30;;;;104668;1308;35345;-42
2022/06/30 03:08:52;;;;;;;12.60;11.50;;;;;;100340.67;;;;104662;1310;35146;-42
2022/06/30 03:11:24;;;;;;;12.30;11.10;;;;;;100347.55;;;;104550;1313;33586;-42
2022/06/30 03:13:56;;;;;;;12.50;11.20;;;;;;100351.73;;;;104664;1313;35047;-41
2022/06/30 03:16:29;;;;;;;11.90;10.80;;;;;;100354.45;;;;104692;1304;35422;-42
2022/06/30 03:19:01;;;;;;;12.50;11.30;;;;;;100361.63;;;;104667;1312;34430;-41
2022/06/30 03:21:33;;;;;;;12.30;11.00;;;;;;100367.44;;;;104621;1312;34311;-42
2022/06/30 03:24:06;;;;;;;12.20;10.90;;;;;;100374.11;;;;104660;1308;34311;-42
2022/06/30 03:26:39;;;;;;;13.00;11.70;;;;;;100371.00;;;;104683;1312;36145;-43
2022/06/30 03:29:11;;;;;;;12.30;11.20;;;;;;100370.48;;;;104659;1308;33831;-42
2022/06/30 03:31:44;;;;;;;13.70;11.00;;;;;;100367.52;;;;104660;1312;33607;-42
2022/06/30 03:34:16;;;;;;;12.90;11.50;;;;;;100370.31;;;;104650;1308;34376;-42
2022/06/30 03:36:49;;;;;;;13.00;11.50;;;;;;100372.71;;;;104546;1313;33518;-42
2022/06/30 03:39:21;;;;;;;12.10;10.90;;;;;;100373.34;;;;104664;1309;33735;-41
2022/06/30 03:41:53;;;;;;;12.30;10.90;;;;;;100374.91;;;;104546;1313;35773;-42
2022/06/30 03:44:26;;;;;;;13.20;11.80;;;;;;100375.27;;;;104667;1312;33567;-42
2022/06/30 03:46:59;;;;;;;14.90;11.30;;;;;;100376.27;;;;104674;1311;35378;-43
2022/06/30 03:49:33;;;;;;;14.80;11.90;;;;;;100376.91;;;;104659;1314;34820;-41
2022/06/30 03:52:06;;;;;;;12.30;10.60;;;;;;100378.00;;;;104660;1308;35293;-42
2022/06/30 03:54:39;;;;;;;14.00;11.50;;;;;;100379.09;;;;104666;1311;35816;-42
2022/06/30 03:57:11;;;;;;;14.10;11.70;;;;;;100382.22;;;;104689;1314;35941;-42
2022/06/30 03:59:43;;;;;;;13.50;11.10;;;;;;100379.35;;;;104675;1314;34413;-43
2022/06/30 04:02:16;;;;;;;12.60;11.20;;;;;;100380.65;;;;104667;1313;35731;-42
2022/06/30 04:04:48;;;;;;;12.40;11.10;;;;;;100379.83;;;;104664;1312;35258;-42
2022/06/30 04:07:20;;;;;;;14.20;11.30;;;;;;100377.43;;;;104686;1312;35659;-41
2022/06/30 04:09:53;;;;;;;12.30;11.10;;;;;;100381.88;;;;104670;1306;35054;-42
2022/06/30 04:12:25;;;;;;;11.60;10.60;;;;;;100378.26;;;;104661;1312;34964;-41
2022/06/30 04:14:58;;;;;;;12.10;10.60;;;;;;100377.79;;;;104666;1305;33707;-42
2022/06/30 04:17:33;;;;;;;12.30;11.10;;;;;;100379.21;;;;104637;1313;35702;-41
2022/06/30 04:20:15;;;;;;;12.30;11.10;;;;;;100379.27;;;;104642;1308;34503;-41
2022/06/30 04:22:50;;;;;;;12.80;11.50;;;;;;100379.98;;;;104665;1312;33714;-41
2022/06/30 04:25:23;;;;;;;12.90;11.30;;;;;;100375.01;;;;104580;1314;35389;-42
2022/06/30 04:27:57;;;;;;;;;;;;;;100377.73;;;;104660;1312;34488;-41
2022/06/30 04:33:20;;;;;;;12.10;11.00;;;;;;100386.34;;;;104676;1313;35213;-42
2022/06/30 04:35:52;;;;;;;12.40;11.20;;;;;;100387.79;;;;104683;1308;35771;-42
2022/06/30 04:38:24;;;;;;;12.30;10.80;;;;;;100390.60;;;;104572;1311;35428;-41
2022/06/30 04:43:47;;;;;;;12.40;11.20;;;;;;100389.73;;;;104644;1312;33743;-41
2022/06/30 04:46:19;;;;;;;13.30;12.00;;;;;;100390.82;;;;104565;1313;34255;-43
2022/06/30 04:48:54;;;;;;;13.00;11.70;;;;;;100393.98;;;;104643;1312;35294;-41
2022/06/30 04:51:28;;;;;;;13.90;11.70;;;;;;100392.64;;;;104672;1311;35533;-41
2022/06/30 04:53:58;;;;;;;;;;;;;;100391.61;;;;104600;1311;35288;-42
2022/06/30 04:56:32;;;;;;;;;;;;;;100387.07;;;;104532;1313;33713;-41
2022/06/30 04:59:04;;;;;;;13.40;12.00;;;;;;100391.84;;;;104678;1308;33334;-42
2022/06/30 05:01:37;;;;;;;14.40;12.90;;;;;;100395.04;;;;104692;1308;34231;-42
2022/06/30 05:04:09;;;;;;;14.10;11.40;;;;;;100398.48;;;;104703;1304;35444;-42
2022/06/30 05:06:44;;;;;;;13.70;12.30;;;;;;100396.36;;;;104726;1308;32855;-42
2022/06/30 05:09:16;;;;;;;12.60;11.30;;;;;;100395.92;;;;104714;1308;35283;-42
2022/06/30 05:11:49;;;;;;;12.80;11.50;;;;;;100402.32;;;;104712;1304;34340;-41
2022/06/30 05:14:21;;;;;;;12.60;11.40;;;;;;100409.27;;;;104698;1313;35659;-41
2022/06/30 05:16:53;;;;;;;13.60;12.30;;;;;;100410.36;;;;104689;1312;35570;-41
2022/06/30 05:19:29;;;;;;;14.00;12.60;;;;;;100410.14;;;;104563;1313;33782;-42
2022/06/30 05:22:02;;;;;;;13.10;11.80;;;;;;100408.39;;;;104710;1308;33766;-41
2022/06/30 05:27:25;;;;;;;13.00;11.80;;;;;;100398.80;;;;104657;1308;35722;-41
2022/06/30 05:29:57;;;;;;;15.10;12.50;;;;;;100401.30;;;;104687;1308;35058;-41
2022/06/30 05:32:30;;;;;;;13.20;11.90;;;;;;100404.08;;;;104672;1308;35391;-42
2022/06/30 05:35:02;;;;;;;12.60;11.40;;;;;;100408.15;;;;104650;1309;34494;-41
2022/06/30 05:37:35;;;;;;;13.10;11.70;;;;;;100409.75;;;;104679;1308;34065;-41
2022/06/30 05:40:10;;;;;;;13.10;11.80;;;;;;100405.18;;;;104666;1313;35348;-41
2022/06/30 05:42:44;;;;;;;13.10;11.80;;;;;;100406.94;;;;104683;1308;35408;-42
2022/06/30 05:45:18;;;;;;;12.90;11.60;;;;;;100411.56;;;;104607;1309;35464;-41
2022/06/30 05:47:54;;;;;;;14.20;12.70;;;;;;100413.33;;;;104677;1308;35497;-41
2022/06/30 05:50:25;;;;;;;;;;;;;;100415.65;;;;104565;1310;35262;-42
2022/06/30 05:52:57;;;;;;;14.80;12.40;;;;;;100418.83;;;;104681;1304;33123;-41
2022/06/30 05:55:30;;;;;;;13.60;12.30;;;;;;100419.10;;;;104680;1308;35431;-41
2022/06/30 05:58:04;;;;;;;14.30;12.90;;;;;;100422.83;;;;104660;1308;34376;-42
2022/06/30 06:00:36;;;;;;;13.90;12.50;;;;;;100422.33;;;;104592;1310;33999;-41
2022/06/30 06:03:08;;;;;;;13.20;11.90;;;;;;100415.72;;;;104665;1304;34390;-41
2022/06/30 06:05:41;;;;;;;13.60;12.20;;;;;;100413.81;;;;104587;1308;33478;-41
2022/06/30 06:08:14;;;;;;;13.40;12.00;;;;;;100414.19;;;;104692;1310;34758;-41
2022/06/30 06:10:47;;;;;;;13.60;12.20;;;;;;100416.14;;;;104545;1312;35640;-41
2022/06/30 06:13:19;;;;;;;13.50;12.30;;;;;;100416.90;;;;104671;1310;33960;-41
2022/06/30 06:15:51;;;;;;;14.30;13.00;;;;;;100413.82;;;;104646;1314;35894;-41
2022/06/30 06:18:23;;;;;;;13.30;12.00;;;;;;100410.33;;;;104563;1311;33806;-41
2022/06/30 06:20:56;;;;;;;13.30;12.00;;;;;;100410.36;;;;104664;1304;33645;-42
2022/06/30 06:23:29;;;;;;;14.80;13.40;;;;;;100407.98;;;;104676;1308;35310;-42
2022/06/30 06:26:01;;;;;;;13.30;12.00;;;;;;100406.73;;;;104666;1309;34576;-41
2022/06/30 06:31:24;;;;;;;14.70;13.30;;;;;;100402.94;;;;104675;1309;33769;-41
2022/06/30 06:33:56;;;;;;;14.00;12.60;;;;;;100407.56;;;;104669;1312;33722;-42
2022/06/30 06:36:29;;;;;;;13.90;12.50;;;;;;100407.18;;;;104651;1308;35199;-42
2022/06/30 06:39:01;;;;;;;14.90;13.50;;;;;;100410.05;;;;104653;1313;35802;-42
2022/06/30 06:41:34;;;;;;;13.90;12.60;;;;;;100409.77;;;;104645;1308;34180;-42
2022/06/30 06:44:07;;;;;;;14.10;12.80;;;;;;100412.13;;;;104661;1311;33726;-42
2022/06/30 06:46:40;;;;;;;14.00;12.80;;;;;;100399.60;;;;104651;1312;35183;-42
2022/06/30 06:49:12;;;;;;;13.70;12.40;;;;;;100394.73;;;;104668;1308;34250;-42
2022/06/30 06:51:44;;;;;;;15.30;13.90;;;;;;100406.08;;;;104660;1305;35283;-42
2022/06/30 06:54:17;;;;;;;14.30;12.90;;;;;;100412.59;;;;104687;1311;35192;-42
2022/06/30 06:56:49;;;;;;;14.80;13.50;;;;;;100411.00;;;;104669;1308;35014;-43
2022/06/30 06:59:24;;;;;;;14.50;13.20;;;;;;100411.09;;;;104652;1313;35373;-42
2022/06/30 07:01:56;;;;;;;13.70;12.40;;;;;;100406.81;;;;104650;1310;34246;-42
2022/06/30 07:04:29;;;;;;;13.90;12.60;;;;;;100399.95;;;;104655;1304;34474;-41
2022/06/30 07:07:01;;;;;;;14.70;13.40;;;;;;100400.42;;;;104665;1311;33596;-42
2022/06/30 07:09:34;;;;;;;15.60;14.20;;;;;;100403.30;;;;104667;1309;33629;-42
2022/06/30 07:12:08;;;;;;;13.80;12.50;;;;;;100403.80;;;;104676;1308;33863;-42
2022/06/30 07:14:41;;;;;;;14.70;13.30;;;;;;100402.33;;;;104667;1309;33553;-42
2022/06/30 07:17:13;;;;;;;15.10;13.60;;;;;;100392.88;;;;104689;1305;34028;-42
2022/06/30 07:19:46;;;;;;;14.30;13.10;;;;;;100388.39;;;;104673;1304;35214;-42
2022/06/30 07:22:18;;;;;;;14.00;12.60;;;;;;100389.23;;;;104658;1310;33605;-42
2022/06/30 07:24:51;;;;;;;15.00;13.60;;;;;;100400.30;;;;104654;1310;35286;-42
2022/06/30 07:27:23;;;;;;;14.60;13.20;;;;;;100407.73;;;;104669;1313;35131;-42
2022/06/30 07:29:56;;;;;;;15.40;14.00;;;;;;100414.21;;;;104670;1308;34199;-42
2022/06/30 07:32:29;;;;;;;14.20;13.00;;;;;;100423.39;;;;104672;1314;35236;-42
2022/06/30 07:35:00;;;;;;;;;;;;;;100425.94;;;;104579;1308;34533;-44
2022/06/30 07:37:33;;;;;;;15.30;13.80;;;;;;100428.27;;;;104652;1309;35162;-44
2022/06/30 07:40:07;;;;;;;14.70;13.30;;;;;;100432.00;;;;104641;1312;35560;-42
2022/06/30 07:42:39;;;;;;;14.50;13.20;;;;;;100434.73;;;;104823;1302;35280;-41
2022/06/30 07:45:14;;;;;;;15.70;14.00;;;;;;100438.85;;;;104613;1309;35022;-40
2022/06/30 07:47:46;;;;;;;15.90;14.30;;;;;;100437.13;;;;104692;1311;35734;-48
2022/06/30 07:50:19;;;;;;;14.90;13.40;;;;;;100440.64;;;;104656;1308;34049;-45
2022/06/30 07:52:54;;;;;;;14.50;13.10;;;;;;100442.58;;;;104672;1310;35564;-44
2022/06/30 07:55:26;;;;;;;14.80;13.30;;;;;;100444.15;;;;104670;1307;34952;-45
2022/06/30 07:57:59;;;;;;;14.60;13.20;;;;;;100445.98;;;;104669;1311;35194;-45
2022/06/30 08:00:31;;;;;;;14.30;12.90;;;;;;100447.67;;;;104680;1311;34572;-47
2022/06/30 08:03:04;;;;;;;14.20;12.90;;;;;;100447.85;;;;104688;1309;35406;-49
2022/06/30 08:05:36;;;;;;;14.10;12.70;;;;;;100442.15;;;;104661;1314;34473;-48
2022/06/30 08:08:08;;;;;;;14.50;13.10;;;;;;100440.83;;;;104672;1304;33648;-46
2022/06/30 08:10:41;;;;;;;14.00;12.70;;;;;;100447.80;;;;104524;1311;34596;-45
2022/06/30 08:13:13;;;;;;;13.90;12.60;;;;;;100445.62;;;;104624;1313;35597;-45
2022/06/30 08:15:46;;;;;;;13.60;12.40;;;;;;100446.34;;;;104453;1311;321593;-44
2022/06/30 08:18:22;;;;;;;13.70;12.50;;;;;;100452.30;;;;104674;1308;33314;-44
2022/06/30 08:20:54;;;;;;;13.20;12.00;;;;;;100453.59;;;;104675;1312;35405;-45
2022/06/30 08:23:27;;;;;;;13.30;11.90;;;;;;100456.70;;;;104664;1312;35487;-45
2022/06/30 08:25:59;;;;;;;13.00;11.80;;;;;;100453.64;;;;104564;1309;35236;-44
2022/06/30 08:28:33;;;;;;;13.00;11.80;;;;;;100453.30;;;;104644;1308;34169;-44
2022/06/30 08:31:06;;;;;;;12.90;11.70;;;;;;100454.48;;;;104726;1309;35494;-48
2022/06/30 08:33:38;;;;;;;13.50;12.30;;;;;;100452.98;;;;104659;1313;35195;-45
2022/06/30 08:36:11;;;;;;;13.10;12.00;;;;;;100448.24;;;;104656;1313;35777;-46
2022/06/30 08:38:43;;;;;;;13.20;12.00;;;;;;100445.77;;;;104663;1314;35387;-48
2022/06/30 08:44:08;;;;;;;13.30;12.00;;;;;;100441.35;;;;104683;1313;33320;-46
2022/06/30 08:46:41;;;;;;;13.60;12.50;;;;;;100440.27;;;;104617;1314;34198;-45
2022/06/30 08:49:13;;;;;;;14.40;13.00;;;;;;100435.23;;;;104666;1308;35354;-44
2022/06/30 08:51:47;;;;;;;12.60;11.50;;;;;;100430.28;;;;104637;1308;34029;-44
2022/06/30 08:54:23;;;;;;;13.70;12.50;;;;;;100426.31;;;;104657;1309;33472;-44
2022/06/30 08:56:55;;;;;;;13.80;12.60;;;;;;100423.44;;;;104661;1308;34893;-46
2022/06/30 08:59:30;;;;;;;13.30;12.00;;;;;;100416.45;;;;104679;1311;35724;-46
2022/06/30 09:02:03;;;;;;;13.80;12.50;;;;;;100414.44;;;;104698;1311;33446;-43
2022/06/30 09:04:35;;;;;;;13.20;11.90;;;;;;100416.52;;;;104685;1304;34203;-41
2022/06/30 09:07:08;;;;;;;13.50;12.30;;;;;;100415.64;;;;104698;1309;35207;-42
2022/06/30 09:09:41;;;;;;;13.60;12.40;;;;;;100411.52;;;;104662;1311;35615;-43
2022/06/30 09:12:18;;;;;;;13.70;12.40;;;;;;100410.01;;;;104713;1308;34184;-38
2022/06/30 09:14:51;;;;;;;13.50;12.20;;;;;;100407.15;;;;104677;1309;33993;-38
2022/06/30 09:17:25;;;;;;;14.30;12.90;;;;;;100405.11;;;;104695;1303;33317;-37
2022/06/30 09:20:00;;;;;;;15.30;12.20;;;;;;100400.91;;;;104694;1311;35735;-45
2022/06/30 09:22:34;;;;;;;13.70;12.60;;;;;;100399.34;;;;104671;1311;35439;-39
2022/06/30 09:25:15;;;;;;;14.20;12.90;;;;;;100395.52;;;;104646;1309;35388;-38
2022/06/30 09:27:48;;;;;;;13.20;12.00;;;;;;100397.30;;;;104677;1310;34784;-38
2022/06/30 09:30:21;;;;;;;;;;;;;;100392.58;;;;104676;1310;34607;-37
2022/06/30 09:32:53;;;;;;;;;;;;;;100386.72;;;;104712;1309;35242;-37
2022/06/30 09:35:28;;;;;;;14.20;12.90;;;;;;100379.70;;;;104710;1311;35603;-42
2022/06/30 09:38:08;;;;;;;14.10;12.90;;;;;;100375.66;;;;104677;1311;34479;-46
2022/06/30 09:41:00;;;;;;;14.20;12.90;;;;;;100378.64;;;;104688;1311;35127;-45
2022/06/30 09:43:37;;;;;;;13.80;12.60;;;;;;100378.60;;;;104669;1311;34589;-46
2022/06/30 09:46:10;;;;;;;15.10;13.70;;;;;;100378.66;;;;104670;1309;34395;-46
2022/06/30 09:48:43;;;;;;;14.50;13.20;;;;;;100372.20;;;;104650;1304;35025;-44
2022/06/30 09:51:17;;;;;;;14.10;12.80;;;;;;100373.79;;;;104674;1310;35054;-43
2022/06/30 09:54:11;;;;;;;14.80;13.00;;;;;;100372.31;;;;104683;1308;34628;-41
2022/06/30 09:56:43;;;;;;;15.00;13.50;;;;;;100365.95;;;;104640;1313;35192;-41
2022/06/30 09:59:25;;;;;;;15.00;13.60;;;;;;100364.21;;;;104646;1310;34277;-40
2022/06/30 10:01:59;;;;;;;15.60;14.10;;;;;;100360.14;;;;104642;1308;36341;-38
2022/06/30 10:04:32;;;;;;;15.50;14.10;;;;;;100358.39;;;;104649;1313;35858;-42
2022/06/30 10:07:04;;;;;;;14.60;13.30;;;;;;100360.78;;;;104636;1309;33880;-40
2022/06/30 10:09:37;;;;;;;14.30;13.10;;;;;;100361.55;;;;104636;1304;35039;-41
2022/06/30 10:12:10;;;;;;;15.60;14.00;;;;;;100356.42;;;;104655;1312;33883;-44
2022/06/30 10:14:43;;;;;;;15.80;14.10;;;;;;100348.76;;;;104672;1308;33702;-41
2022/06/30 10:17:17;;;;;;;16.20;14.60;;;;;;100347.70;;;;104676;1312;34408;-43
2022/06/30 10:19:52;;;;;;;15.70;14.20;;;;;;100347.80;;;;104633;1309;34245;-45
2022/06/30 10:22:26;;;;;;;16.10;14.60;;;;;;100343.65;;;;104683;1304;33782;-43
2022/06/30 10:24:59;;;;;;;14.90;13.50;;;;;;100340.52;;;;104674;1308;34561;-44
2022/06/30 10:27:31;;;;;;;15.80;14.30;;;;;;100339.62;;;;104676;1309;35306;-45
2022/06/30 10:30:09;;;;;;;15.50;14.30;;;;;;100337.17;;;;104637;1308;35185;-42
2022/06/30 10:33:06;;;;;;;16.00;14.50;;;;;;100337.75;;;;104687;1310;35467;-44
2022/06/30 10:35:45;;;;;;;15.50;14.20;;;;;;100338.22;;;;104659;1308;35336;-41
2022/06/30 10:38:27;;;;;;;15.90;14.40;;;;;;100334.60;;;;104649;1308;33873;-39
2022/06/30 10:41:07;;;;;;;15.70;14.30;;;;;;100328.16;;;;104661;1312;35281;-47
2022/06/30 10:44:22;;;;;;;15.70;14.30;;;;;;100327.02;;;;104676;1309;35285;-43
2022/06/30 10:47:12;;;;;;;15.20;13.90;;;;;;100324.73;;;;104624;1306;35300;-39
2022/06/30 10:49:59;;;;;;;15.80;14.30;;;;;;100313.77;;;;104612;1308;35066;-40
2022/06/30 10:52:45;;;;;;;14.90;13.50;;;;;;100309.67;;;;104658;1305;34280;-41
2022/06/30 10:55:17;;;;;;;15.70;14.20;;;;;;100305.61;;;;104684;1307;34644;-39
2022/06/30 10:58:13;;;;;;;14.90;13.60;;;;;;100311.92;;;;104655;1311;35064;-41
2022/06/30 11:00:59;;;;;;;15.30;13.90;;;;;;100310.46;;;;104616;1308;33805;-41
2022/06/30 11:04:05;;;;;;;15.30;13.80;;;;;;100308.59;;;;104672;1308;34411;-40
2022/06/30 11:07:02;;;;;;;15.40;14.10;;;;;;100302.65;;;;104697;1308;35275;-41
2022/06/30 11:10:19;;;;;;;15.00;13.80;;;;;;100298.02;;;;104665;1310;33402;-41
2022/06/30 11:13:08;;;;;;;15.20;13.80;;;;;;100295.48;;;;104453;1315;33664;-41
2022/06/30 11:15:59;;;;;;;15.50;14.10;;;;;;100296.09;;;;104475;1315;35677;-41
2022/06/30 11:18:36;;;;;;;14.70;13.50;;;;;;100295.34;;;;104626;1308;36019;-41
2022/06/30 11:21:08;;;;;;;14.60;13.40;;;;;;100293.53;;;;104664;1307;35777;-38
2022/06/30 11:23:45;;;;;;;15.20;13.90;;;;;;100287.25;;;;104700;1308;34586;-38
2022/06/30 11:29:18;;;;;;;14.70;13.30;;;;;;100283.48;;;;104694;1310;33747;-36
2022/06/30 11:31:51;;;;;;;15.30;13.80;;;;;;100282.99;;;;104659;1311;34120;-37
2022/06/30 11:34:23;;;;;;;15.10;13.80;;;;;;100275.44;;;;104700;1311;33589;-37
2022/06/30 11:36:56;;;;;;;15.30;14.00;;;;;;100280.88;;;;104743;1307;35504;-40
2022/06/30 11:39:28;;;;;;;15.20;13.80;;;;;;100277.20;;;;104697;1309;35954;-39
2022/06/30 11:42:03;;;;;;;15.50;14.10;;;;;;100272.27;;;;104676;1311;35346;-38
2022/06/30 11:44:38;;;;;;;16.30;14.80;;;;;;100276.98;;;;104709;1308;34417;-38
2022/06/30 11:47:16;;;;;;;15.60;14.20;;;;;;100278.34;;;;104698;1311;35747;-38
2022/06/30 11:49:51;;;;;;;16.20;14.80;;;;;;100269.60;;;;104677;1310;34384;-41
2022/06/30 11:52:35;;;;;;;16.90;15.50;;;;;;100267.66;;;;104685;1310;33918;-45
2022/06/30 11:55:11;;;;;;;15.80;14.50;;;;;;100268.95;;;;104704;1311;34764;-48
2022/06/30 11:57:46;;;;;;;16.80;15.30;;;;;;100272.27;;;;104706;1304;35300;-42
2022/06/30 12:00:22;;;;;;;16.30;14.90;;;;;;100266.09;;;;104686;1311;33601;-40
2022/06/30 12:02:55;;;;;;;16.40;15.00;;;;;;100263.19;;;;104702;1311;35498;-43
2022/06/30 12:05:30;;;;;;;17.00;15.60;;;;;;100261.57;;;;104634;1311;33741;-42
2022/06/30 12:08:05;;;;;;;16.10;14.80;;;;;;100256.81;;;;104684;1311;35411;-40
2022/06/30 12:10:44;;;;;;;16.60;15.30;;;;;;100251.74;;;;104695;1308;35430;-46
2022/06/30 12:13:21;;;;;;;16.20;14.90;;;;;;100253.28;;;;104673;1305;35284;-46
2022/06/30 12:15:56;;;;;;;16.70;15.30;;;;;;100249.45;;;;104677;1309;33673;-42
2022/06/30 12:18:29;;;;;;;17.60;16.00;;;;;;100248.23;;;;104690;1307;35234;-47
2022/06/30 12:21:03;;;;;;;16.50;15.20;;;;;;100246.95;;;;104692;1311;34583;-47
2022/06/30 12:23:39;;;;;;;16.50;15.10;;;;;;100245.95;;;;104685;1310;34404;-44
2022/06/30 12:26:15;;;;;;;16.40;15.10;;;;;;100247.13;;;;104715;1308;35114;-41
2022/06/30 12:28:55;;;;;;;17.40;15.90;;;;;;100246.73;;;;104682;1309;33599;-42
2022/06/30 12:31:31;;;;;;;16.50;15.10;;;;;;100242.85;;;;104722;1310;33738;-44
2022/06/30 12:34:05;;;;;;;16.10;14.80;;;;;;100237.65;;;;104692;1310;35664;-40
2022/06/30 12:36:40;;;;;;;16.40;15.10;;;;;;100236.41;;;;104671;1307;33449;-41
2022/06/30 12:39:16;;;;;;;16.60;15.20;;;;;;100238.21;;;;104706;1308;33853;-43
2022/06/30 12:42:00;;;;;;;16.30;15.00;;;;;;100235.88;;;;104672;1307;35252;-46
2022/06/30 12:44:38;;;;;;;16.30;14.90;;;;;;100232.84;;;;104684;1311;33960;-46
2022/06/30 12:47:17;;;;;;;15.90;14.60;;;;;;100229.85;;;;104675;1308;35714;-42
2022/06/30 12:49:50;;;;;;;17.60;16.00;;;;;;100225.93;;;;104649;1310;35598;-49
2022/06/30 12:52:25;;;;;;;16.50;15.10;;;;;;100228.09;;;;104669;1311;34017;-49
2022/06/30 12:55:02;;;;;;;16.10;14.70;;;;;;100224.95;;;;104720;1315;35851;-40
2022/06/30 12:57:39;;;;;;;15.90;14.40;;;;;;100219.82;;;;104680;1308;35420;-42
2022/06/30 13:00:14;;;;;;;16.20;14.80;;;;;;100213.23;;;;104581;1311;35112;-42
2022/06/30 13:02:48;;;;;;;16.40;15.00;;;;;;100213.58;;;;104728;1308;34963;-44
2022/06/30 13:05:20;;;;;;;16.70;15.10;;;;;;100217.24;;;;104683;1310;33632;-46
2022/06/30 13:07:54;;;;;;;15.70;14.40;;;;;;100216.18;;;;104715;1307;34800;-44
2022/06/30 13:11:04;;;;;;;15.50;14.20;;;;;;100215.65;;;;104721;1304;35659;-47
2022/06/30 13:13:27;;;;;;;15.70;14.40;;;;;;100213.45;;;;104706;1308;34541;-43
2022/06/30 13:15:59;;;;;;;14.50;13.30;;;;;;100212.14;;;;104730;1308;33739;-46
2022/06/30 13:18:32;;;;;;;14.40;13.20;;;;;;100215.48;;;;104607;1311;35054;-45
2022/06/30 13:21:04;;;;;;;15.80;14.40;;;;;;100217.44;;;;104729;1310;35374;-46
2022/06/30 13:23:37;;;;;;;15.80;14.20;;;;;;100217.52;;;;104722;1308;35070;-44
2022/06/30 13:26:10;;;;;;;15.70;14.40;;;;;;100218.23;;;;104726;1305;35246;-44
2022/06/30 13:28:43;;;;;;;14.80;13.60;;;;;;100214.86;;;;104591;1311;34138;-44